createdAt,value
2023-03-06T00:01:03.222Z,16.77
2023-03-06T00:03:29.849Z,16.33
2023-03-06T00:05:59.395Z,16.63
2023-03-06T00:08:26.659Z,20.05
2023-03-06T00:10:53.068Z,21.05
2023-03-06T00:13:21.497Z,17.20
2023-03-06T00:15:48.408Z,16.48
2023-03-06T00:18:15.073Z,35.17
2023-03-06T00:20:42.391Z,38.22
2023-03-06T00:23:09.214Z,28.10
2023-03-06T00:25:38.756Z,20.88
2023-03-06T00:28:05.645Z,15.88
2023-03-06T00:30:32.203Z,16.75
2023-03-06T00:32:58.589Z,14.82
2023-03-06T00:35:24.997Z,13.73
2023-03-06T00:37:51.458Z,15.63
2023-03-06T00:40:19.256Z,18.02
2023-03-06T00:42:45.833Z,16.02
2023-03-06T00:45:12.558Z,15.10
2023-03-06T00:47:39.241Z,16.27
2023-03-06T00:50:06.055Z,14.73
2023-03-06T00:52:32.483Z,14.02
2023-03-06T00:54:59.364Z,14.40
2023-03-06T00:57:25.729Z,16.35
2023-03-06T00:59:54.473Z,15.05
2023-03-06T01:02:20.999Z,15.13
2023-03-06T01:04:47.522Z,14.85
2023-03-06T01:07:13.917Z,14.90
2023-03-06T01:09:40.344Z,16.30
2023-03-06T01:12:06.910Z,17.75
2023-03-06T01:14:33.419Z,16.77
2023-03-06T01:17:02.252Z,17.52
2023-03-06T01:19:28.592Z,16.58
2023-03-06T01:21:54.961Z,15.43
2023-03-06T01:24:22.362Z,19.13
2023-03-06T01:26:48.725Z,17.48
2023-03-06T01:29:15.156Z,16.50
2023-03-06T01:31:41.561Z,16.45
2023-03-06T01:34:07.918Z,15.88
2023-03-06T01:36:34.301Z,15.95
2023-03-06T01:39:00.657Z,16.50
2023-03-06T01:41:27.168Z,15.98
2023-03-06T01:43:53.642Z,16.00
2023-03-06T01:46:46.410Z,14.80
2023-03-06T01:49:18.332Z,14.88
2023-03-06T01:51:49.861Z,15.55
2023-03-06T01:54:20.462Z,15.07
2023-03-06T01:56:49.646Z,15.63
2023-03-06T01:59:16.457Z,17.83
2023-03-06T02:01:45.804Z,15.65
2023-03-06T02:04:12.194Z,16.10
2023-03-06T02:06:43.063Z,15.13
2023-03-06T02:09:10.911Z,19.25
2023-03-06T02:11:37.353Z,20.58
2023-03-06T02:14:03.958Z,32.55
2023-03-06T02:16:31.690Z,20.48
2023-03-06T02:19:00.171Z,19.45
2023-03-06T02:21:34.284Z,16.73
2023-03-06T02:24:13.023Z,15.68
2023-03-06T02:26:40.795Z,16.25
2023-03-06T02:29:07.717Z,15.40
2023-03-06T02:31:34.410Z,15.43
2023-03-06T02:34:00.733Z,17.20
2023-03-06T02:36:27.295Z,17.65
2023-03-06T02:38:53.722Z,17.02
2023-03-06T02:41:20.070Z,16.88
2023-03-06T02:43:49.805Z,18.00
2023-03-06T02:46:16.243Z,18.35
2023-03-06T02:48:42.667Z,19.65
2023-03-06T02:51:09.064Z,17.42
2023-03-06T02:53:35.467Z,16.73
2023-03-06T02:56:04.363Z,15.55
2023-03-06T02:58:30.721Z,15.80
2023-03-06T03:00:57.092Z,19.50
2023-03-06T03:03:25.939Z,23.60
2023-03-06T03:05:52.274Z,16.38
2023-03-06T03:08:21.698Z,14.82
2023-03-06T03:10:48.108Z,24.90
2023-03-06T03:13:14.536Z,21.77
2023-03-06T03:15:41.276Z,17.98
2023-03-06T03:18:07.652Z,15.88
2023-03-06T03:20:34.008Z,14.77
2023-03-06T03:23:00.358Z,14.15
2023-03-06T03:25:27.066Z,13.88
2023-03-06T03:27:53.501Z,14.07
2023-03-06T03:30:20.095Z,12.85
2023-03-06T03:32:46.457Z,13.05
2023-03-06T03:35:15.195Z,12.63
2023-03-06T03:37:41.774Z,12.30
2023-03-06T03:40:10.163Z,13.20
2023-03-06T03:42:36.551Z,12.45
2023-03-06T03:45:02.962Z,11.75
2023-03-06T03:47:29.805Z,12.32
2023-03-06T03:49:56.152Z,11.82
2023-03-06T03:52:22.574Z,12.48
2023-03-06T03:54:48.907Z,12.32
2023-03-06T03:57:15.276Z,11.77
2023-03-06T03:59:41.613Z,11.63
2023-03-06T04:02:08.042Z,12.07
2023-03-06T04:04:37.037Z,11.75
2023-03-06T04:07:04.388Z,11.60
2023-03-06T04:09:30.770Z,11.85
2023-03-06T04:11:57.191Z,12.65
2023-03-06T04:14:23.566Z,12.77
2023-03-06T04:16:49.949Z,11.63
2023-03-06T04:19:16.426Z,12.30
2023-03-06T04:21:42.815Z,11.93
2023-03-06T04:24:09.475Z,11.38
2023-03-06T04:26:36.848Z,11.82
2023-03-06T04:29:03.363Z,11.90
2023-03-06T04:31:29.811Z,12.23
2023-03-06T04:33:56.330Z,12.90
2023-03-06T04:36:28.167Z,12.48
2023-03-06T04:38:54.902Z,13.23
2023-03-06T04:41:21.338Z,11.48
2023-03-06T04:43:47.855Z,12.25
2023-03-06T04:46:14.223Z,11.43
2023-03-06T04:48:40.564Z,11.52
2023-03-06T04:51:06.996Z,13.00
2023-03-06T04:53:33.598Z,12.27
2023-03-06T04:55:59.966Z,12.90
2023-03-06T04:58:26.374Z,12.88
2023-03-06T05:00:52.763Z,13.40
2023-03-06T05:03:19.131Z,13.48
2023-03-06T05:05:45.510Z,12.80
2023-03-06T05:08:15.514Z,13.20
2023-03-06T05:10:42.795Z,11.80
2023-03-06T05:13:09.381Z,12.30
2023-03-06T05:15:35.744Z,12.32
2023-03-06T05:18:02.082Z,13.10
2023-03-06T05:20:28.791Z,12.70
2023-03-06T05:22:57.604Z,12.70
2023-03-06T05:25:23.952Z,12.68
2023-03-06T05:27:50.411Z,13.30
2023-03-06T05:30:16.904Z,12.98
2023-03-06T05:32:43.492Z,13.63
2023-03-06T05:35:15.750Z,11.98
2023-03-06T05:37:42.127Z,12.27
2023-03-06T05:40:09.522Z,12.63
2023-03-06T05:42:35.884Z,12.77
2023-03-06T05:45:04.475Z,13.00
2023-03-06T05:47:31.141Z,13.10
2023-03-06T05:49:57.503Z,14.98
2023-03-06T05:52:24.243Z,14.57
2023-03-06T05:54:51.696Z,14.65
2023-03-06T05:57:19.406Z,14.73
2023-03-06T05:59:46.459Z,14.45
2023-03-06T06:02:12.972Z,15.85
2023-03-06T06:04:39.763Z,14.38
2023-03-06T06:07:06.168Z,15.27
2023-03-06T06:09:32.580Z,15.30
2023-03-06T06:12:00.592Z,16.10
2023-03-06T06:14:27.451Z,15.85
2023-03-06T06:16:53.979Z,15.85
2023-03-06T06:19:20.699Z,14.65
2023-03-06T06:21:47.979Z,14.73
2023-03-06T06:24:15.391Z,14.90
2023-03-06T06:26:42.224Z,14.82
2023-03-06T06:29:08.968Z,15.40
2023-03-06T06:31:36.739Z,16.50
2023-03-06T06:34:04.359Z,15.30
2023-03-06T06:36:30.698Z,14.88
2023-03-06T06:38:57.038Z,14.98
2023-03-06T06:42:02.213Z,14.50
2023-03-06T06:44:15.421Z,16.13
2023-03-06T06:49:31.541Z,15.10
2023-03-06T06:51:58.138Z,15.10
2023-03-06T06:54:26.885Z,15.85
2023-03-06T06:56:53.375Z,16.38
2023-03-06T06:59:20.133Z,15.15
2023-03-06T07:01:46.673Z,15.00
2023-03-06T07:04:13.577Z,14.80
2023-03-06T07:06:40.480Z,15.38
2023-03-06T07:09:06.907Z,16.00
2023-03-06T07:11:33.300Z,15.90
2023-03-06T07:13:59.707Z,16.38
2023-03-06T07:16:26.567Z,15.68
2023-03-06T07:18:52.917Z,15.85
2023-03-06T07:21:19.487Z,16.83
2023-03-06T07:23:45.832Z,16.75
2023-03-06T07:26:12.435Z,16.80
2023-03-06T07:28:52.069Z,16.88
2023-03-06T07:31:24.745Z,17.15
2023-03-06T07:33:52.393Z,17.80
2023-03-06T07:36:18.894Z,18.02
2023-03-06T07:38:45.310Z,17.42
2023-03-06T07:41:13.280Z,18.00
2023-03-06T07:43:43.485Z,18.45
2023-03-06T07:46:10.310Z,18.75
2023-03-06T07:48:37.133Z,22.45
2023-03-06T07:51:08.205Z,20.38
2023-03-06T07:53:35.028Z,18.45
2023-03-06T07:56:08.389Z,17.83
2023-03-06T07:58:38.168Z,22.63
2023-03-06T08:01:05.254Z,19.55
2023-03-06T08:03:31.655Z,19.10
2023-03-06T08:06:12.050Z,20.23
2023-03-06T08:08:39.527Z,20.05
2023-03-06T08:11:06.945Z,19.05
2023-03-06T08:13:33.372Z,19.00
2023-03-06T08:16:00.376Z,18.05
2023-03-06T08:18:27.516Z,18.58
2023-03-06T08:21:05.883Z,17.63
2023-03-06T08:23:32.439Z,17.67
2023-03-06T08:26:00.105Z,16.67
2023-03-06T08:28:26.687Z,16.38
2023-03-06T08:30:53.597Z,17.25
2023-03-06T08:33:19.950Z,17.13
2023-03-06T08:35:46.370Z,17.02
2023-03-06T08:38:12.734Z,16.95
2023-03-06T08:40:39.092Z,18.90
2023-03-06T08:43:05.477Z,17.05
2023-03-06T08:45:32.421Z,17.20
2023-03-06T08:47:58.785Z,17.13
2023-03-06T08:50:25.187Z,17.10
2023-03-06T08:52:51.535Z,17.05
2023-03-06T08:55:17.956Z,16.60
2023-03-06T08:57:44.353Z,16.55
2023-03-06T09:00:14.320Z,17.38
2023-03-06T09:02:40.769Z,17.10
2023-03-06T09:05:08.442Z,20.20
2023-03-06T09:07:35.553Z,17.42
2023-03-06T09:10:01.936Z,17.05
2023-03-06T09:12:30.708Z,17.20
2023-03-06T09:14:57.312Z,17.52
2023-03-06T09:17:23.745Z,17.45
2023-03-06T09:19:50.947Z,44.72
2023-03-06T09:22:17.738Z,18.73
2023-03-06T09:24:46.735Z,16.33
2023-03-06T09:27:13.071Z,16.25
2023-03-06T09:29:39.410Z,16.10
2023-03-06T09:32:09.636Z,15.43
2023-03-06T09:34:37.608Z,14.75
2023-03-06T09:37:04.012Z,14.30
2023-03-06T09:39:30.373Z,13.65
2023-03-06T09:41:58.166Z,13.90
2023-03-06T09:44:29.217Z,11.68
2023-03-06T09:47:34.275Z,13.05
2023-03-06T09:50:06.361Z,10.52
2023-03-06T09:52:36.458Z,13.82
2023-03-06T09:55:06.205Z,13.80
2023-03-06T09:57:35.353Z,13.30
2023-03-06T10:00:05.265Z,13.23
2023-03-06T10:02:42.115Z,15.15
2023-03-06T10:05:12.422Z,21.63
2023-03-06T10:07:51.008Z,15.25
2023-03-06T10:10:19.015Z,14.95
2023-03-06T10:12:48.361Z,14.02
2023-03-06T10:15:14.830Z,14.13
2023-03-06T10:17:42.403Z,12.40
2023-03-06T10:20:10.864Z,13.05
2023-03-06T10:22:48.066Z,13.32
2023-03-06T10:25:27.957Z,13.55
2023-03-06T10:30:38.464Z,13.30
2023-03-06T10:33:23.974Z,13.38
2023-03-06T10:35:51.826Z,12.85
2023-03-06T10:38:27.865Z,13.77
2023-03-06T10:41:12.713Z,13.18
2023-03-06T10:43:39.065Z,13.90
2023-03-06T10:46:06.523Z,13.98
2023-03-06T10:48:35.993Z,13.48
2023-03-06T10:51:19.922Z,13.48
2023-03-06T10:53:51.076Z,13.25
2023-03-06T10:56:27.703Z,14.18
2023-03-06T10:59:09.489Z,13.63
2023-03-06T11:01:36.096Z,13.23
2023-03-06T11:04:21.200Z,13.68
2023-03-06T11:06:47.865Z,13.73
2023-03-06T11:09:26.525Z,14.02
2023-03-06T11:11:55.864Z,14.68
2023-03-06T11:14:23.103Z,14.35
2023-03-06T11:16:53.660Z,13.55
2023-03-06T11:19:20.026Z,13.43
2023-03-06T11:21:59.229Z,14.48
2023-03-06T11:24:31.926Z,13.82
2023-03-06T11:26:59.581Z,13.18
2023-03-06T11:29:42.461Z,13.10
2023-03-06T11:32:18.120Z,13.60
2023-03-06T11:35:06.945Z,13.57
2023-03-06T11:37:53.879Z,13.52
2023-03-06T11:40:23.652Z,13.70
2023-03-06T11:42:58.017Z,13.32
2023-03-06T11:45:37.215Z,14.68
2023-03-06T11:48:19.426Z,14.95
2023-03-06T11:50:50.683Z,14.70
2023-03-06T11:53:21.247Z,13.88
2023-03-06T11:55:50.400Z,14.02
2023-03-06T11:58:30.541Z,15.23
2023-03-06T12:01:03.013Z,15.00
2023-03-06T12:03:48.251Z,14.82
2023-03-06T12:06:20.314Z,15.20
2023-03-06T12:08:55.095Z,14.43
2023-03-06T12:11:30.691Z,14.95
2023-03-06T12:14:08.142Z,16.23
2023-03-06T12:16:58.652Z,15.73
2023-03-06T12:19:28.138Z,14.43
2023-03-06T12:22:19.212Z,14.63
2023-03-06T12:24:45.588Z,15.20
2023-03-06T12:27:30.805Z,14.98
2023-03-06T12:29:57.170Z,15.05
2023-03-06T12:32:44.681Z,15.63
2023-03-06T12:35:14.161Z,14.52
2023-03-06T12:38:07.707Z,15.45
2023-03-06T12:41:03.563Z,15.02
2023-03-06T12:43:35.808Z,15.15
2023-03-06T12:46:08.342Z,15.45
2023-03-06T12:48:36.336Z,15.32
2023-03-06T12:51:06.570Z,15.05
2023-03-06T12:53:34.050Z,15.60
2023-03-06T12:56:01.697Z,14.57
2023-03-06T12:58:30.421Z,15.70
2023-03-06T13:01:03.568Z,16.20
2023-03-06T13:03:30.451Z,15.80
2023-03-06T13:06:09.134Z,15.32
2023-03-06T13:08:38.539Z,15.38
2023-03-06T13:11:23.289Z,15.25
2023-03-06T13:13:49.712Z,17.00
2023-03-06T13:16:16.313Z,15.10
2023-03-06T13:18:42.686Z,14.68
2023-03-06T13:21:27.862Z,14.80
2023-03-06T13:24:03.392Z,14.65
2023-03-06T13:26:29.748Z,16.25
2023-03-06T13:28:57.941Z,15.68
2023-03-06T13:31:28.674Z,15.90
2023-03-06T13:33:55.029Z,16.83
2023-03-06T13:36:23.064Z,16.05
2023-03-06T13:38:49.574Z,20.17
2023-03-06T13:41:18.914Z,20.48
2023-03-06T13:43:45.583Z,15.57
2023-03-06T13:46:31.638Z,15.38
2023-03-06T13:49:13.297Z,15.55
2023-03-06T13:51:41.776Z,13.95
2023-03-06T13:54:20.652Z,14.32
2023-03-06T13:56:47.346Z,13.63
2023-03-06T13:59:22.863Z,13.63
2023-03-06T14:02:09.989Z,13.27
2023-03-06T14:04:36.514Z,15.07
2023-03-06T14:07:12.105Z,13.65
2023-03-06T14:09:42.663Z,13.50
2023-03-06T14:12:15.152Z,12.45
2023-03-06T14:14:48.480Z,13.65
2023-03-06T14:17:22.114Z,14.10
2023-03-06T14:19:48.953Z,14.27
2023-03-06T14:22:17.078Z,13.07
2023-03-06T14:24:46.413Z,13.82
2023-03-06T14:27:17.124Z,13.23
2023-03-06T14:29:44.568Z,14.52
2023-03-06T14:32:11.252Z,13.05
2023-03-06T14:34:41.334Z,13.52
2023-03-06T14:37:18.559Z,13.65
2023-03-06T14:39:48.136Z,12.77
2023-03-06T14:42:21.833Z,12.93
2023-03-06T14:47:26.829Z,15.70
2023-03-06T14:50:12.169Z,13.40
2023-03-06T14:52:38.661Z,15.10
2023-03-06T14:55:10.555Z,14.38
2023-03-06T14:57:39.780Z,14.15
2023-03-06T15:00:06.977Z,13.32
2023-03-06T15:02:34.017Z,13.95
2023-03-06T15:05:02.782Z,13.25
2023-03-06T15:07:30.540Z,13.13
2023-03-06T15:09:57.880Z,13.40
2023-03-06T15:12:24.296Z,12.82
2023-03-06T15:14:57.012Z,12.45
2023-03-06T15:17:40.936Z,12.80
2023-03-06T15:22:38.236Z,12.48
2023-03-06T15:25:20.115Z,12.82
2023-03-06T15:27:52.373Z,12.23
2023-03-06T15:30:25.064Z,12.75
2023-03-06T15:32:51.944Z,13.73
2023-03-06T15:35:24.394Z,12.65
2023-03-06T15:37:51.513Z,13.90
2023-03-06T15:40:19.166Z,14.18
2023-03-06T15:42:46.238Z,13.52
2023-03-06T15:45:15.872Z,21.50
2023-03-06T15:47:42.905Z,14.18
2023-03-06T15:50:19.597Z,15.32
2023-03-06T15:52:46.686Z,16.08
2023-03-06T15:55:16.282Z,15.88
2023-03-06T15:58:02.571Z,15.68
2023-03-06T16:00:34.206Z,14.50
2023-03-06T16:03:01.655Z,15.15
2023-03-06T16:05:28.569Z,15.25
2023-03-06T16:07:55.061Z,14.32
2023-03-06T16:10:22.543Z,14.27
2023-03-06T16:12:50.507Z,14.60
2023-03-06T16:15:21.348Z,14.60
2023-03-06T16:17:47.865Z,15.65
2023-03-06T16:20:18.990Z,15.93
2023-03-06T16:22:46.511Z,15.80
2023-03-06T16:25:15.987Z,17.75
2023-03-06T16:27:43.869Z,15.05
2023-03-06T16:30:16.651Z,14.93
2023-03-06T16:32:43.577Z,14.65
2023-03-06T16:35:10.337Z,14.57
2023-03-06T16:37:36.964Z,15.00
2023-03-06T16:40:06.790Z,15.00
2023-03-06T16:42:33.677Z,13.70
2023-03-06T16:45:00.108Z,13.82
2023-03-06T16:47:26.689Z,13.57
2023-03-06T16:49:57.356Z,13.60
2023-03-06T16:52:24.055Z,14.95
2023-03-06T16:54:50.523Z,14.27
2023-03-06T16:57:17.375Z,16.35
2023-03-06T16:59:43.865Z,17.58
2023-03-06T17:02:11.160Z,18.00
2023-03-06T17:04:37.808Z,35.88
2023-03-06T17:07:04.297Z,15.98
2023-03-06T17:09:30.960Z,19.02
2023-03-06T17:11:57.396Z,13.95
2023-03-06T17:14:26.315Z,14.52
2023-03-06T17:16:54.077Z,13.23
2023-03-06T17:19:20.470Z,13.32
2023-03-06T17:21:46.898Z,13.73
2023-03-06T17:24:13.284Z,13.57
2023-03-06T17:26:40.207Z,15.25
2023-03-06T17:29:07.204Z,16.17
2023-03-06T17:31:36.146Z,16.48
2023-03-06T17:34:02.515Z,14.48
2023-03-06T17:36:29.847Z,13.98
2023-03-06T17:38:56.991Z,14.20
2023-03-06T17:41:24.589Z,13.82
2023-03-06T17:43:51.679Z,13.95
2023-03-06T17:46:18.682Z,13.50
2023-03-06T17:48:45.156Z,13.85
2023-03-06T17:51:11.842Z,14.35
2023-03-06T17:53:38.463Z,13.65
2023-03-06T17:56:05.646Z,13.98
2023-03-06T17:58:32.253Z,14.40
2023-03-06T18:00:58.940Z,13.43
2023-03-06T18:03:25.446Z,14.13
2023-03-06T18:05:58.890Z,14.02
2023-03-06T18:08:25.270Z,14.85
2023-03-06T18:10:51.713Z,14.90
2023-03-06T18:13:18.120Z,14.40
2023-03-06T18:15:44.498Z,15.25
2023-03-06T18:18:11.089Z,13.43
2023-03-06T18:20:40.970Z,15.05
2023-03-06T18:23:07.321Z,16.52
2023-03-06T18:25:33.798Z,14.15
2023-03-06T18:28:00.284Z,13.73
2023-03-06T18:30:26.899Z,15.00
2023-03-06T18:32:53.674Z,15.07
2023-03-06T18:35:20.462Z,13.00
2023-03-06T18:37:46.917Z,13.27
2023-03-06T18:40:13.582Z,11.93
2023-03-06T18:42:39.981Z,12.52
2023-03-06T18:45:06.720Z,12.85
2023-03-06T18:47:33.681Z,13.10
2023-03-06T18:50:00.100Z,13.75
2023-03-06T18:52:26.438Z,12.82
2023-03-06T18:54:55.316Z,13.73
2023-03-06T18:57:21.697Z,12.75
2023-03-06T18:59:48.380Z,12.43
2023-03-06T19:02:14.782Z,15.98
2023-03-06T19:04:43.279Z,14.40
2023-03-06T19:07:09.650Z,14.35
2023-03-06T19:09:35.999Z,13.23
2023-03-06T19:12:03.448Z,14.55
2023-03-06T19:14:29.932Z,11.48
2023-03-06T19:16:56.402Z,10.77
2023-03-06T19:19:26.297Z,11.20
2023-03-06T19:21:53.490Z,11.23
2023-03-06T19:24:19.951Z,12.60
2023-03-06T19:26:46.393Z,12.88
2023-03-06T19:29:12.919Z,14.90
2023-03-06T19:31:39.366Z,14.73
2023-03-06T19:34:05.793Z,19.25
2023-03-06T19:36:34.144Z,20.80
2023-03-06T19:39:05.556Z,19.35
2023-03-06T19:41:32.199Z,18.58
2023-03-06T19:43:59.536Z,17.08
2023-03-06T19:46:26.618Z,21.77
2023-03-06T19:49:00.446Z,18.02
2023-03-06T19:51:27.127Z,15.43
2023-03-06T19:53:53.837Z,13.38
2023-03-06T19:56:21.840Z,11.98
2023-03-06T19:58:51.590Z,12.77
2023-03-06T20:01:21.476Z,12.43
2023-03-06T20:03:47.852Z,12.15
2023-03-06T20:06:18.494Z,13.38
2023-03-06T20:08:45.552Z,13.25
2023-03-06T20:11:18.229Z,13.05
2023-03-06T20:13:47.372Z,14.55
2023-03-06T20:16:14.331Z,14.25
2023-03-06T20:18:40.831Z,14.48
2023-03-06T20:21:07.549Z,12.63
2023-03-06T20:23:34.110Z,12.45
2023-03-06T20:26:05.944Z,12.52
2023-03-06T20:28:33.155Z,11.82
2023-03-06T20:30:59.510Z,11.80
2023-03-06T20:33:27.018Z,11.07
2023-03-06T20:35:54.103Z,10.95
2023-03-06T20:38:20.576Z,11.13
2023-03-06T20:40:46.981Z,11.63
2023-03-06T20:43:13.396Z,11.05
2023-03-06T20:45:39.776Z,11.55
2023-03-06T20:48:06.300Z,12.00
2023-03-06T20:50:32.725Z,14.68
2023-03-06T20:52:59.056Z,16.10
2023-03-06T20:55:25.532Z,15.93
2023-03-06T20:57:52.287Z,15.27
2023-03-06T21:00:19.200Z,14.85
2023-03-06T21:02:45.611Z,16.90
2023-03-06T21:05:12.119Z,16.15
2023-03-06T21:07:38.520Z,16.33
2023-03-06T21:10:05.169Z,15.27
2023-03-06T21:12:31.554Z,14.80
2023-03-06T21:14:59.039Z,16.35
2023-03-06T21:17:25.584Z,16.05
2023-03-06T21:19:52.784Z,15.15
2023-03-06T21:22:19.166Z,17.33
2023-03-06T21:24:45.548Z,18.08
2023-03-06T21:27:11.917Z,15.68
2023-03-06T21:29:38.333Z,15.93
2023-03-06T21:32:04.924Z,15.52
2023-03-06T21:34:31.350Z,15.05
2023-03-06T21:36:57.751Z,17.40
2023-03-06T21:39:24.131Z,18.85
2023-03-06T21:41:52.919Z,24.80
2023-03-06T21:44:19.712Z,24.70
2023-03-06T21:46:48.613Z,21.90
2023-03-06T21:49:14.992Z,18.58
2023-03-06T21:51:41.378Z,20.73
2023-03-06T21:54:09.608Z,19.83
2023-03-06T21:56:36.113Z,19.67
2023-03-06T21:59:02.678Z,18.35
2023-03-06T22:01:29.482Z,18.10
2023-03-06T22:03:58.485Z,16.85
2023-03-06T22:06:26.639Z,16.05
2023-03-06T22:08:54.389Z,15.38
2023-03-06T22:11:21.826Z,15.13
2023-03-06T22:13:48.673Z,14.02
2023-03-06T22:16:15.754Z,15.00
2023-03-06T22:18:46.018Z,13.82
2023-03-06T22:21:13.876Z,14.23
2023-03-06T22:23:43.187Z,14.25
2023-03-06T22:26:11.178Z,14.45
2023-03-06T22:28:37.994Z,14.50
2023-03-06T22:31:05.495Z,14.50
2023-03-06T22:33:31.869Z,15.25
2023-03-06T22:36:06.240Z,14.27
2023-03-06T22:38:36.660Z,16.02
2023-03-06T22:41:03.132Z,16.02
2023-03-06T22:43:29.557Z,16.65
2023-03-06T22:46:00.008Z,17.27
2023-03-06T22:48:26.437Z,17.90
2023-03-06T22:50:52.841Z,21.17
2023-03-06T22:53:19.206Z,17.73
2023-03-06T22:55:45.614Z,19.67
2023-03-06T22:58:11.952Z,25.08
2023-03-06T23:00:38.730Z,65.70
2023-03-06T23:03:05.192Z,58.50
2023-03-06T23:05:31.575Z,34.38
2023-03-06T23:07:57.899Z,20.73
2023-03-06T23:10:24.502Z,14.05
2023-03-06T23:12:50.855Z,12.75
2023-03-06T23:15:17.267Z,12.27
2023-03-06T23:17:43.722Z,12.48
2023-03-06T23:20:13.447Z,12.57
2023-03-06T23:22:39.870Z,12.60
2023-03-06T23:25:06.476Z,12.10
2023-03-06T23:27:33.340Z,12.55
2023-03-06T23:29:59.726Z,12.02
2023-03-06T23:32:26.176Z,13.95
2023-03-06T23:34:52.671Z,12.68
2023-03-06T23:37:19.042Z,14.43
2023-03-06T23:39:45.433Z,13.07
2023-03-06T23:42:11.821Z,12.95
2023-03-06T23:44:38.315Z,12.82
2023-03-06T23:47:04.740Z,12.65
2023-03-06T23:49:31.094Z,12.20
2023-03-06T23:51:57.550Z,12.23
2023-03-06T23:54:23.913Z,11.13
2023-03-06T23:56:50.758Z,11.48
2023-03-06T23:59:17.186Z,12.13
